Kriti II — SZQW — position and weather

sailwx.info

Track history (hours):
 
Tides and Currents Weather Stations Pressure Air Temp Water Temp Dewpoint Dewpoint Depression Visibility Wind Speed Wind Dir Waves Ship Positions

Kriti II

Last reported at 2018-Feb-19 04:00 UTC. Time now 2018-Feb-19 04:17 UTC.
Position N 37°56' E 023°38'.

Length 192 m; draft 7 m.

Type: Passenger vessel. MMSI: 237032000.

Date/timePositionNaut miles runAvg speedWind from/ knotsBaromVisibWave heightAir tempDewpointWater temp
2018-Feb-19 04:00N 37°56' E 023°38'713.7
2018-Feb-19 03:30N 37°50' E 023°40'1019.8
2018-Feb-19 03:00N 37°41' E 023°45'1019.9
2018-Feb-19 02:29N 37°31' E 023°49'3 0.1
2018-Feb-17 20:29N 37°32' E 023°46'1020.4
2018-Feb-17 20:01N 37°41' E 023°42'1020.0
2018-Feb-17 19:30N 37°50' E 023°37'713.1
2018-Feb-17 19:00N 37°57' E 023°38'0 0.0
2018-Feb-17 18:30N 37°57' E 023°38'0 0.0
2018-Feb-17 18:00N 37°57' E 023°38'0 0.0
2018-Feb-17 17:30N 37°57' E 023°38'0 0.0
2018-Feb-17 17:00N 37°57' E 023°38'0 0.0
2018-Feb-17 16:30N 37°57' E 023°38'0 0.0
2018-Feb-17 16:00N 37°57' E 023°38'0 0.0
2018-Feb-17 15:29N 37°57' E 023°38'0 0.0
2018-Feb-17 14:59N 37°57' E 023°38'0 0.0
2018-Feb-17 14:29N 37°57' E 023°38'0 0.0
2018-Feb-17 13:59N 37°57' E 023°38'0 0.0
2018-Feb-17 13:29N 37°57' E 023°38'0 0.0
2018-Feb-17 12:59N 37°57' E 023°38'0 0.0
2018-Feb-17 12:29N 37°57' E 023°38'0 0.0
2018-Feb-17 11:59N 37°57' E 023°38'0 0.0
2018-Feb-17 11:29N 37°57' E 023°38'0 0.0
2018-Feb-17 10:59N 37°57' E 023°38'0 0.0
2018-Feb-17 10:29N 37°57' E 023°38'0 0.0
2018-Feb-17 09:59N 37°57' E 023°38'0 0.0
2018-Feb-17 09:29N 37°57' E 023°38'0 0.0
2018-Feb-17 08:59N 37°57' E 023°38'0 0.0
2018-Feb-17 08:29N 37°57' E 023°38'0 0.0
2018-Feb-17 07:56N 37°57' E 023°38'0 0.0
2018-Feb-17 07:29N 37°57' E 023°38'0 0.0
2018-Feb-17 06:59N 37°57' E 023°38'0 0.0
2018-Feb-17 06:29N 37°57' E 023°38'0 0.0
2018-Feb-17 05:59N 37°57' E 023°38'0 0.0
2018-Feb-17 05:29N 37°57' E 023°38'0 0.0
2018-Feb-17 05:00N 37°57' E 023°38'2 4.3
2018-Feb-17 04:31N 37°55' E 023°37'917.8
2018-Feb-17 04:00N 37°47' E 023°42'1019.7
2018-Feb-17 03:30N 37°38' E 023°47'5 0.2
2018-Feb-15 20:37N 37°33' E 023°46'220.9
2018-Feb-15 20:30N 37°35' E 023°45'1020.8
2018-Feb-15 20:00N 37°45' E 023°40'1019.9
2018-Feb-15 19:30N 37°54' E 023°37'3 5.0
2018-Feb-15 19:00N 37°57' E 023°38'0 0.0
2018-Feb-15 18:30N 37°57' E 023°38'0 0.0
2018-Feb-15 18:00N 37°57' E 023°38'0 0.0
2018-Feb-15 17:30N 37°57' E 023°38'0 0.0
2018-Feb-15 17:00N 37°57' E 023°38'0 0.0
2018-Feb-15 16:30N 37°57' E 023°38'0 0.0
2018-Feb-15 16:00N 37°57' E 023°38'0 0.0
2018-Feb-15 15:30N 37°57' E 023°38'0 0.0
2018-Feb-15 15:00N 37°57' E 023°38'0 0.0
2018-Feb-15 14:30N 37°57' E 023°38'0 0.0
2018-Feb-15 14:00N 37°57' E 023°38'0 0.0
2018-Feb-15 13:27N 37°57' E 023°38'0 0.0
2018-Feb-15 13:00N 37°57' E 023°38'0 0.0
2018-Feb-15 12:30N 37°57' E 023°38'0 0.0
2018-Feb-15 12:00N 37°57' E 023°38'0 0.0
2018-Feb-15 11:30N 37°57' E 023°38'0 0.0
2018-Feb-15 11:00N 37°57' E 023°38'0 0.0
2018-Feb-15 10:30N 37°57' E 023°38'0 0.0
2018-Feb-15 10:00N 37°57' E 023°38'0 0.0
2018-Feb-15 09:30N 37°57' E 023°38'0 0.0
2018-Feb-15 09:00N 37°57' E 023°38'0 0.0
2018-Feb-15 08:30N 37°57' E 023°38'0 0.0
2018-Feb-15 08:00N 37°57' E 023°38'0 0.0
2018-Feb-15 07:30N 37°57' E 023°38'0 0.0
2018-Feb-15 07:00N 37°57' E 023°38'0 0.0
2018-Feb-15 04:23N 37°57' E 023°38'1 1.8
2018-Feb-15 04:00N 37°56' E 023°37'5 9.7
2018-Feb-15 03:30N 37°52' E 023°39'1220.1
2018-Feb-15 02:54N 37°41' E 023°46'920.3
2018-Feb-15 02:26N 37°32' E 023°49'3 0.1
2018-Feb-13 20:33N 37°32' E 023°46'219.6
2018-Feb-13 20:28N 37°34' E 023°45'919.8
2018-Feb-13 20:00N 37°42' E 023°40'1019.6
2018-Feb-13 19:30N 37°51' E 023°36'611.2
2018-Feb-13 19:00N 37°57' E 023°38'0 0.0
2018-Feb-13 18:30N 37°57' E 023°38'0 0.0
2018-Feb-13 18:00N 37°57' E 023°38'0 0.0
2018-Feb-13 17:30N 37°57' E 023°38'0 0.0
2018-Feb-13 17:00N 37°57' E 023°38'0 0.0
2018-Feb-13 16:30N 37°57' E 023°38'0 0.0
2018-Feb-13 16:00N 37°57' E 023°38'0 0.0
2018-Feb-13 15:30N 37°57' E 023°38'0 0.0
2018-Feb-13 15:00N 37°57' E 023°38'0 0.0
2018-Feb-13 14:30N 37°57' E 023°38'0 0.0
2018-Feb-13 14:00N 37°57' E 023°38'0 0.0
2018-Feb-13 13:30N 37°57' E 023°38'0 0.0
2018-Feb-13 13:00N 37°57' E 023°38'0 0.0
2018-Feb-13 12:30N 37°57' E 023°38'0 0.0
2018-Feb-13 12:00N 37°57' E 023°38'0 0.0
2018-Feb-13 11:30N 37°57' E 023°38'0 0.0
2018-Feb-13 10:57N 37°57' E 023°38'0 0.0
2018-Feb-13 10:30N 37°57' E 023°38'0 0.0
2018-Feb-13 10:00N 37°57' E 023°38'0 0.0
2018-Feb-13 09:30N 37°57' E 023°38'0 0.0
2018-Feb-13 08:57N 37°57' E 023°38'0 0.0
2018-Feb-13 08:27N 37°57' E 023°38'0 0.0
2018-Feb-13 08:00N 37°57' E 023°38'0 0.0
2018-Feb-13 07:30N 37°57' E 023°38'0 0.0
2018-Feb-13 07:00N 37°57' E 023°38'0 0.0
2018-Feb-13 06:30N 37°57' E 023°38'0 0.0
2018-Feb-13 06:00N 37°57' E 023°38'0 0.0
2018-Feb-13 05:30N 37°57' E 023°38'0 0.0
2018-Feb-13 05:00N 37°57' E 023°38'0 0.0
2018-Feb-13 04:30N 37°57' E 023°38'0 0.7
2018-Feb-13 04:00N 37°56' E 023°38'714.5
2018-Feb-13 03:30N 37°49' E 023°40'1020.3
2018-Feb-13 03:01N 37°40' E 023°46'9 0.3
2018-Feb-11 20:34N 37°31' E 023°46'120.5
2018-Feb-11 20:30N 37°32' E 023°45'1020.3
2018-Feb-11 20:00N 37°42' E 023°41'1020.0
2018-Feb-11 19:30N 37°51' E 023°36'611.5
2018-Feb-11 18:59N 37°57' E 023°38'0 0.0
2018-Feb-11 18:29N 37°57' E 023°38'0 0.0
2018-Feb-11 17:59N 37°57' E 023°38'0 0.0
2018-Feb-11 17:29N 37°57' E 023°38'0 0.0
2018-Feb-11 16:59N 37°57' E 023°38'0 0.0
2018-Feb-11 16:29N 37°57' E 023°38'0 0.0
2018-Feb-11 16:00N 37°57' E 023°38'0 0.0
2018-Feb-11 15:29N 37°57' E 023°38'0 0.0
2018-Feb-11 15:00N 37°57' E 023°38'0 0.0
2018-Feb-11 14:30N 37°57' E 023°38'0 0.0
2018-Feb-11 14:00N 37°57' E 023°38'0 0.0
2018-Feb-11 13:30N 37°57' E 023°38'0 0.0
2018-Feb-11 12:59N 37°57' E 023°38'0 0.0
2018-Feb-11 12:30N 37°57' E 023°38'0 0.0
2018-Feb-11 11:59N 37°57' E 023°38'0 0.0
2018-Feb-11 11:30N 37°57' E 023°38'0 0.0
2018-Feb-11 11:00N 37°57' E 023°38'0 0.0
2018-Feb-11 10:30N 37°57' E 023°38'0 0.0
2018-Feb-11 10:00N 37°57' E 023°38'0 0.0
2018-Feb-11 09:30N 37°57' E 023°38'0 0.0
2018-Feb-11 09:00N 37°57' E 023°38'0 0.0
2018-Feb-11 08:30N 37°57' E 023°38'0 0.0
2018-Feb-11 08:00N 37°57' E 023°38'0 0.0
2018-Feb-11 07:30N 37°57' E 023°38'0 0.0
2018-Feb-11 07:00N 37°57' E 023°38'0 0.0
2018-Feb-11 06:30N 37°57' E 023°38'0 0.0
2018-Feb-11 06:00N 37°57' E 023°38'0 0.0
2018-Feb-11 05:30N 37°57' E 023°38'2 3.2
2018-Feb-11 05:01N 37°56' E 023°37'611.1
2018-Feb-11 04:30N 37°51' E 023°40'1019.7
2018-Feb-11 03:59N 37°42' E 023°45'714.0
2018-Feb-11 03:30N 37°35' E 023°48'  
Track history (hours):
 
Tides and Currents Weather Stations Pressure Air Temp Water Temp Dewpoint Dewpoint Depression Visibility Wind Speed Wind Dir Waves Ship Positions

Kriti II

Last reported at 2018-Feb-19 04:00 UTC. Time now 2018-Feb-19 04:17 UTC.
Position N 37°56' E 023°38'.

Length 192 m; draft 7 m.

Type: Passenger vessel. MMSI: 237032000.

Date/timePositionNaut miles runAvg speedWind from/ knotsBaromVisibWave heightAir tempDewpointWater temp
2018-Feb-19 04:00N 37°56' E 023°38'713.7
2018-Feb-19 03:30N 37°50' E 023°40'1019.8
2018-Feb-19 03:00N 37°41' E 023°45'1019.9
2018-Feb-19 02:29N 37°31' E 023°49'3 0.1
2018-Feb-17 20:29N 37°32' E 023°46'1020.4
2018-Feb-17 20:01N 37°41' E 023°42'1020.0
2018-Feb-17 19:30N 37°50' E 023°37'713.1
2018-Feb-17 19:00N 37°57' E 023°38'0 0.0
2018-Feb-17 18:30N 37°57' E 023°38'0 0.0
2018-Feb-17 18:00N 37°57' E 023°38'0 0.0
2018-Feb-17 17:30N 37°57' E 023°38'0 0.0
2018-Feb-17 17:00N 37°57' E 023°38'0 0.0
2018-Feb-17 16:30N 37°57' E 023°38'0 0.0
2018-Feb-17 16:00N 37°57' E 023°38'0 0.0
2018-Feb-17 15:29N 37°57' E 023°38'0 0.0
2018-Feb-17 14:59N 37°57' E 023°38'0 0.0
2018-Feb-17 14:29N 37°57' E 023°38'0 0.0
2018-Feb-17 13:59N 37°57' E 023°38'0 0.0
2018-Feb-17 13:29N 37°57' E 023°38'0 0.0
2018-Feb-17 12:59N 37°57' E 023°38'0 0.0
2018-Feb-17 12:29N 37°57' E 023°38'0 0.0
2018-Feb-17 11:59N 37°57' E 023°38'0 0.0
2018-Feb-17 11:29N 37°57' E 023°38'0 0.0
2018-Feb-17 10:59N 37°57' E 023°38'0 0.0
2018-Feb-17 10:29N 37°57' E 023°38'0 0.0
2018-Feb-17 09:59N 37°57' E 023°38'0 0.0
2018-Feb-17 09:29N 37°57' E 023°38'0 0.0
2018-Feb-17 08:59N 37°57' E 023°38'0 0.0
2018-Feb-17 08:29N 37°57' E 023°38'0 0.0
2018-Feb-17 07:56N 37°57' E 023°38'0 0.0
2018-Feb-17 07:29N 37°57' E 023°38'0 0.0
2018-Feb-17 06:59N 37°57' E 023°38'0 0.0
2018-Feb-17 06:29N 37°57' E 023°38'0 0.0
2018-Feb-17 05:59N 37°57' E 023°38'0 0.0
2018-Feb-17 05:29N 37°57' E 023°38'0 0.0
2018-Feb-17 05:00N 37°57' E 023°38'2 4.3
2018-Feb-17 04:31N 37°55' E 023°37'917.8
2018-Feb-17 04:00N 37°47' E 023°42'1019.7
2018-Feb-17 03:30N 37°38' E 023°47'5 0.2
2018-Feb-15 20:37N 37°33' E 023°46'220.9
2018-Feb-15 20:30N 37°35' E 023°45'1020.8
2018-Feb-15 20:00N 37°45' E 023°40'1019.9
2018-Feb-15 19:30N 37°54' E 023°37'3 5.0
2018-Feb-15 19:00N 37°57' E 023°38'0 0.0
2018-Feb-15 18:30N 37°57' E 023°38'0 0.0
2018-Feb-15 18:00N 37°57' E 023°38'0 0.0
2018-Feb-15 17:30N 37°57' E 023°38'0 0.0
2018-Feb-15 17:00N 37°57' E 023°38'0 0.0
2018-Feb-15 16:30N 37°57' E 023°38'0 0.0
2018-Feb-15 16:00N 37°57' E 023°38'0 0.0
2018-Feb-15 15:30N 37°57' E 023°38'0 0.0
2018-Feb-15 15:00N 37°57' E 023°38'0 0.0
2018-Feb-15 14:30N 37°57' E 023°38'0 0.0
2018-Feb-15 14:00N 37°57' E 023°38'0 0.0
2018-Feb-15 13:27N 37°57' E 023°38'0 0.0
2018-Feb-15 13:00N 37°57' E 023°38'0 0.0
2018-Feb-15 12:30N 37°57' E 023°38'0 0.0
2018-Feb-15 12:00N 37°57' E 023°38'0 0.0
2018-Feb-15 11:30N 37°57' E 023°38'0 0.0
2018-Feb-15 11:00N 37°57' E 023°38'0 0.0
2018-Feb-15 10:30N 37°57' E 023°38'0 0.0
2018-Feb-15 10:00N 37°57' E 023°38'0 0.0
2018-Feb-15 09:30N 37°57' E 023°38'0 0.0
2018-Feb-15 09:00N 37°57' E 023°38'0 0.0
2018-Feb-15 08:30N 37°57' E 023°38'0 0.0
2018-Feb-15 08:00N 37°57' E 023°38'0 0.0
2018-Feb-15 07:30N 37°57' E 023°38'0 0.0
2018-Feb-15 07:00N 37°57' E 023°38'0 0.0
2018-Feb-15 04:23N 37°57' E 023°38'1 1.8
2018-Feb-15 04:00N 37°56' E 023°37'5 9.7
2018-Feb-15 03:30N 37°52' E 023°39'1220.1
2018-Feb-15 02:54N 37°41' E 023°46'920.3
2018-Feb-15 02:26N 37°32' E 023°49'3 0.1
2018-Feb-13 20:33N 37°32' E 023°46'219.6
2018-Feb-13 20:28N 37°34' E 023°45'919.8
2018-Feb-13 20:00N 37°42' E 023°40'1019.6
2018-Feb-13 19:30N 37°51' E 023°36'611.2
2018-Feb-13 19:00N 37°57' E 023°38'0 0.0
2018-Feb-13 18:30N 37°57' E 023°38'0 0.0
2018-Feb-13 18:00N 37°57' E 023°38'0 0.0
2018-Feb-13 17:30N 37°57' E 023°38'0 0.0
2018-Feb-13 17:00N 37°57' E 023°38'0 0.0
2018-Feb-13 16:30N 37°57' E 023°38'0 0.0
2018-Feb-13 16:00N 37°57' E 023°38'0 0.0
2018-Feb-13 15:30N 37°57' E 023°38'0 0.0
2018-Feb-13 15:00N 37°57' E 023°38'0 0.0
2018-Feb-13 14:30N 37°57' E 023°38'0 0.0
2018-Feb-13 14:00N 37°57' E 023°38'0 0.0
2018-Feb-13 13:30N 37°57' E 023°38'0 0.0
2018-Feb-13 13:00N 37°57' E 023°38'0 0.0
2018-Feb-13 12:30N 37°57' E 023°38'0 0.0
2018-Feb-13 12:00N 37°57' E 023°38'0 0.0
2018-Feb-13 11:30N 37°57' E 023°38'0 0.0
2018-Feb-13 10:57N 37°57' E 023°38'0 0.0
2018-Feb-13 10:30N 37°57' E 023°38'0 0.0
2018-Feb-13 10:00N 37°57' E 023°38'0 0.0
2018-Feb-13 09:30N 37°57' E 023°38'0 0.0
2018-Feb-13 08:57N 37°57' E 023°38'0 0.0
2018-Feb-13 08:27N 37°57' E 023°38'0 0.0
2018-Feb-13 08:00N 37°57' E 023°38'0 0.0
2018-Feb-13 07:30N 37°57' E 023°38'0 0.0
2018-Feb-13 07:00N 37°57' E 023°38'0 0.0
2018-Feb-13 06:30N 37°57' E 023°38'0 0.0
2018-Feb-13 06:00N 37°57' E 023°38'0 0.0
2018-Feb-13 05:30N 37°57' E 023°38'0 0.0
2018-Feb-13 05:00N 37°57' E 023°38'0 0.0
2018-Feb-13 04:30N 37°57' E 023°38'0 0.7
2018-Feb-13 04:00N 37°56' E 023°38'714.5
2018-Feb-13 03:30N 37°49' E 023°40'1020.3
2018-Feb-13 03:01N 37°40' E 023°46'9 0.3
2018-Feb-11 20:34N 37°31' E 023°46'120.5
2018-Feb-11 20:30N 37°32' E 023°45'1020.3
2018-Feb-11 20:00N 37°42' E 023°41'1020.0
2018-Feb-11 19:30N 37°51' E 023°36'611.5
2018-Feb-11 18:59N 37°57' E 023°38'0 0.0
2018-Feb-11 18:29N 37°57' E 023°38'0 0.0
2018-Feb-11 17:59N 37°57' E 023°38'0 0.0
2018-Feb-11 17:29N 37°57' E 023°38'0 0.0
2018-Feb-11 16:59N 37°57' E 023°38'0 0.0
2018-Feb-11 16:29N 37°57' E 023°38'0 0.0
2018-Feb-11 16:00N 37°57' E 023°38'0 0.0
2018-Feb-11 15:29N 37°57' E 023°38'0 0.0
2018-Feb-11 15:00N 37°57' E 023°38'0 0.0
2018-Feb-11 14:30N 37°57' E 023°38'0 0.0
2018-Feb-11 14:00N 37°57' E 023°38'0 0.0
2018-Feb-11 13:30N 37°57' E 023°38'0 0.0
2018-Feb-11 12:59N 37°57' E 023°38'0 0.0
2018-Feb-11 12:30N 37°57' E 023°38'0 0.0
2018-Feb-11 11:59N 37°57' E 023°38'0 0.0
2018-Feb-11 11:30N 37°57' E 023°38'0 0.0
2018-Feb-11 11:00N 37°57' E 023°38'0 0.0
2018-Feb-11 10:30N 37°57' E 023°38'0 0.0
2018-Feb-11 10:00N 37°57' E 023°38'0 0.0
2018-Feb-11 09:30N 37°57' E 023°38'0 0.0
2018-Feb-11 09:00N 37°57' E 023°38'0 0.0
2018-Feb-11 08:30N 37°57' E 023°38'0 0.0
2018-Feb-11 08:00N 37°57' E 023°38'0 0.0
2018-Feb-11 07:30N 37°57' E 023°38'0 0.0
2018-Feb-11 07:00N 37°57' E 023°38'0 0.0
2018-Feb-11 06:30N 37°57' E 023°38'0 0.0
2018-Feb-11 06:00N 37°57' E 023°38'0 0.0
2018-Feb-11 05:30N 37°57' E 023°38'2 3.2
2018-Feb-11 05:01N 37°56' E 023°37'611.1
2018-Feb-11 04:30N 37°51' E 023°40'1019.7
2018-Feb-11 03:59N 37°42' E 023°45'714.0
2018-Feb-11 03:30N 37°35' E 023°48'  

Dump ship's entire track history